createdAt,value
2018-09-27T03:41:47.156Z,0.00
2018-09-27T05:34:56.598Z,860.00
2018-09-27T05:35:43.038Z,900.00
2018-09-27T06:01:56.058Z,1640.00
2018-09-27T06:18:28.395Z,2000.00
2018-09-27T06:19:18.416Z,2024.00
2018-09-27T06:21:21.216Z,2072.00
2018-09-27T06:26:05.432Z,2192.00
2018-09-27T06:35:25.182Z,2436.00
2018-09-27T06:38:55.449Z,2556.00
2018-09-27T06:39:56.020Z,2588.00
2018-09-27T06:40:58.007Z,2624.00
2018-09-27T06:42:56.150Z,2680.00
2018-09-27T06:43:58.551Z,2712.00
2018-09-27T06:44:59.306Z,2748.00
2018-09-27T06:45:59.588Z,2784.00
2018-09-27T07:18:29.265Z,3480.00
2018-09-27T07:20:29.761Z,3504.00
2018-09-27T07:21:32.956Z,3516.00
2018-09-27T07:22:29.886Z,3536.00
2018-09-27T07:23:32.251Z,3548.00
2018-09-27T07:24:30.316Z,3568.00
2018-09-27T07:25:30.859Z,3580.00
2018-09-27T07:26:29.770Z,3600.00
2018-09-27T07:27:28.155Z,3616.00
2018-09-27T07:28:31.255Z,3636.00
2018-09-27T07:29:30.907Z,3652.00
2018-09-27T07:30:29.186Z,3672.00
2018-09-27T07:31:28.603Z,3692.00
2018-09-27T07:32:28.680Z,3712.00
2018-09-27T07:33:29.512Z,3736.00
2018-09-27T07:34:28.623Z,3748.00
2018-09-27T07:35:30.033Z,3772.00
2018-09-27T07:36:29.626Z,3788.00
2018-09-27T07:37:30.992Z,3796.00
2018-09-27T07:38:30.696Z,3816.00
2018-09-27T07:39:30.038Z,3840.00
2018-09-27T07:40:30.189Z,3852.00
2018-09-27T07:42:30.333Z,3880.00
2018-09-27T07:43:31.131Z,3892.00
2018-09-27T07:44:31.403Z,3912.00
2018-09-27T07:45:30.832Z,3924.00
2018-09-27T07:46:30.825Z,3936.00
2018-09-27T07:47:31.283Z,3940.00
2018-09-27T07:48:31.728Z,3952.00
2018-09-27T07:49:31.944Z,3960.00
2018-09-27T07:50:31.495Z,3972.00
2018-09-27T07:51:31.913Z,3984.00
2018-09-27T07:52:32.014Z,4004.00
2018-09-27T07:53:32.276Z,4020.00
2018-09-27T07:54:32.344Z,4044.00
2018-09-27T07:55:32.684Z,4060.00
2018-09-27T07:56:32.221Z,4080.00
2018-09-27T07:57:32.474Z,4092.00
2018-09-27T07:58:32.752Z,4104.00
2018-09-27T07:59:33.753Z,4124.00
2018-09-27T08:00:33.053Z,4136.00
2018-09-27T08:01:33.397Z,4164.00
2018-09-27T08:02:34.182Z,4168.00
2018-09-27T08:03:33.696Z,4188.00
2018-09-27T08:04:35.860Z,4204.00
2018-09-27T08:05:33.953Z,4224.00
2018-09-27T08:06:34.245Z,4240.00
2018-09-27T08:07:34.759Z,4264.00
2018-09-27T08:08:34.418Z,4284.00
2018-09-27T08:09:36.825Z,4292.00
2018-09-27T08:10:35.185Z,4312.00
2018-09-27T08:11:35.251Z,4324.00
2018-09-27T08:12:35.245Z,4340.00
2018-09-27T08:13:35.180Z,4360.00
2018-09-27T08:14:48.948Z,4376.00
2018-09-27T08:20:03.626Z,4476.00
2018-09-27T08:49:22.780Z,5068.00
2018-09-27T08:50:30.958Z,5136.00
2018-09-27T08:57:08.336Z,5236.00
2018-09-27T08:58:23.203Z,5268.00
2018-09-27T08:59:06.122Z,5356.00
2018-09-27T09:03:33.574Z,5392.00
2018-09-27T09:07:25.647Z,5664.00
2018-09-27T09:28:32.378Z,56320.00
2018-09-27T10:31:07.091Z,71872.00
2018-09-27T12:17:25.830Z,105408.00
2018-09-27T12:29:52.702Z,102784.00
2018-09-27T12:30:09.068Z,108512.00
2018-09-27T12:59:50.592Z,95040.00
2018-09-27T13:05:24.683Z,99328.00
2018-09-27T13:07:37.282Z,110080.00
2018-09-27T13:13:04.651Z,99520.00
2018-09-27T13:14:48.250Z,99520.00
2018-09-27T13:21:12.285Z,86944.00
2018-09-27T13:28:20.962Z,107584.00
2018-09-27T13:29:33.736Z,108576.00
2018-09-27T13:32:10.102Z,109376.00
2018-09-27T13:33:11.276Z,104000.00
2018-09-27T13:34:10.680Z,99360.00
2018-09-27T13:36:18.018Z,103904.00
2018-09-27T13:37:12.528Z,108096.00
2018-09-27T13:38:10.575Z,95008.00
2018-09-27T13:39:11.034Z,73216.00
2018-09-27T13:40:14.835Z,72160.00
2018-09-27T13:41:11.538Z,93760.00
2018-09-27T13:42:13.220Z,101088.00
2018-09-27T13:43:11.700Z,78048.00
2018-09-27T13:44:13.963Z,52864.00
2018-09-27T13:45:12.306Z,58080.00
2018-09-27T13:46:21.289Z,85152.00
2018-09-27T13:47:20.073Z,92448.00
2018-09-27T13:48:14.277Z,66560.00
2018-09-27T13:49:20.334Z,49440.00
2018-09-27T13:50:13.903Z,61824.00
2018-09-27T13:51:12.642Z,77824.00
2018-09-27T13:52:16.024Z,70592.00
2018-09-27T13:53:13.986Z,54080.00
2018-09-27T13:54:10.988Z,49760.00
2018-09-27T13:55:11.136Z,52608.00
2018-09-27T13:56:11.216Z,52896.00
2018-09-27T13:57:11.506Z,47520.00
2018-09-27T13:58:11.714Z,40256.00
2018-09-27T13:59:11.869Z,37472.00
2018-09-27T14:00:12.045Z,38048.00
2018-09-27T14:01:12.273Z,37952.00
2018-09-27T14:02:12.481Z,39008.00
2018-09-27T14:03:12.607Z,43200.00
2018-09-27T14:04:12.799Z,43712.00
2018-09-27T14:06:13.041Z,35584.00
2018-09-27T14:07:13.794Z,34560.00
2018-09-27T14:08:13.808Z,34016.00
2018-09-27T14:09:14.418Z,33984.00
2018-09-27T14:10:14.035Z,36544.00
2018-09-27T14:11:14.018Z,39232.00
2018-09-27T14:12:14.272Z,38656.00
2018-09-27T14:13:14.412Z,37632.00
2018-09-27T14:14:14.620Z,39456.00
2018-09-27T14:15:14.872Z,44736.00
2018-09-27T14:16:15.058Z,51040.00
2018-09-27T14:17:15.196Z,59968.00
2018-09-27T14:18:15.380Z,66176.00
2018-09-27T14:19:15.618Z,65792.00
2018-09-27T14:20:15.872Z,61856.00
2018-09-27T14:21:16.752Z,63712.00
2018-09-27T14:22:16.142Z,72928.00
2018-09-27T14:23:16.268Z,83520.00
2018-09-27T14:24:16.420Z,86656.00
2018-09-27T14:25:16.672Z,84256.00
2018-09-27T14:26:17.001Z,86560.00
2018-09-27T14:27:16.997Z,95616.00
2018-09-27T14:28:17.237Z,103104.00
2018-09-27T14:29:17.461Z,98880.00
2018-09-27T14:30:17.571Z,86400.00
2018-09-27T14:31:17.840Z,80704.00
2018-09-27T14:32:18.040Z,83072.00
2018-09-27T14:33:18.179Z,85280.00
2018-09-27T14:34:18.375Z,85408.00
2018-09-27T14:35:18.575Z,84384.00
2018-09-27T14:36:18.744Z,83040.00
2018-09-27T14:37:18.986Z,79136.00
2018-09-27T14:38:19.127Z,52480.00
2018-09-27T14:39:19.351Z,27008.00
2018-09-27T14:40:19.504Z,16276.00
2018-09-27T14:41:19.631Z,5812.00
2018-09-27T14:42:19.835Z,5020.00
2018-09-27T14:43:19.994Z,4664.00
2018-09-27T14:44:20.227Z,4532.00
2018-09-27T14:45:20.351Z,4524.00
2018-09-27T14:46:20.628Z,4808.00
2018-09-27T14:47:20.997Z,8960.00
2018-09-27T14:48:21.108Z,8612.00
2018-09-27T14:49:21.287Z,6572.00
2018-09-27T14:50:21.884Z,4516.00
2018-09-27T14:51:21.504Z,4384.00
2018-09-27T14:52:21.724Z,6628.00
2018-09-27T14:53:22.650Z,8980.00
2018-09-27T14:54:22.117Z,5220.00
2018-09-27T14:55:22.405Z,4636.00
2018-09-27T14:56:24.016Z,4164.00
2018-09-27T14:57:22.759Z,4128.00
2018-09-27T14:58:23.180Z,4108.00
2018-09-27T14:59:22.985Z,4096.00
2018-09-27T15:00:23.802Z,4072.00
2018-09-27T15:01:23.517Z,4060.00
2018-09-27T15:02:23.613Z,4016.00
2018-09-27T15:03:23.906Z,4000.00
2018-09-27T15:04:23.823Z,3956.00
2018-09-27T15:05:24.328Z,3936.00
2018-09-27T15:06:30.374Z,3912.00
2018-09-27T15:07:25.114Z,3892.00
2018-09-27T15:13:03.163Z,3732.00
2018-09-27T15:19:36.975Z,3576.00
2018-09-27T16:09:58.999Z,2348.00
2018-09-27T17:10:05.930Z,256.00
2018-09-27T17:12:20.459Z,212.00
2018-09-27T17:41:20.916Z,4.00
2018-09-27T17:50:37.882Z,0.00
2018-09-27T17:51:37.247Z,0.00
2018-09-27T17:55:15.961Z,0.00
2018-09-27T17:59:29.197Z,0.00
2018-09-27T18:00:08.371Z,0.00
2018-09-27T18:01:12.963Z,0.00
2018-09-27T18:02:29.555Z,0.00
2018-09-27T18:03:29.257Z,0.00
2018-09-27T18:04:27.096Z,0.00
2018-09-27T18:05:27.231Z,0.00
2018-09-27T18:06:28.575Z,0.00
2018-09-27T18:07:27.666Z,0.00
2018-09-27T18:08:27.310Z,0.00
2018-09-27T18:09:27.967Z,0.00
2018-09-27T18:10:29.709Z,0.00
2018-09-27T18:11:29.853Z,0.00
2018-09-27T18:12:28.044Z,0.00
2018-09-27T18:13:28.864Z,0.00
2018-09-27T18:14:28.922Z,0.00
2018-09-27T18:15:30.148Z,0.00
2018-09-27T18:16:28.699Z,0.00
2018-09-27T18:17:29.258Z,0.00
2018-09-27T18:18:33.168Z,0.00
